sensor_id;sensor_type;location;lat;lon;timestamp;pressure;altitude;pressure_sealevel;temperature;humidity
41596;BME280;27283;52.504;13.358;2023-10-31T00:01:25;99144.63;;;14.79;74.82
41596;BME280;27283;52.504;13.358;2023-10-31T00:04:13;99144.31;;;14.57;75.70
41596;BME280;27283;52.504;13.358;2023-10-31T00:06:47;99135.91;;;14.65;75.80
41596;BME280;27283;52.504;13.358;2023-10-31T00:09:29;99147.69;;;14.70;75.58
41596;BME280;27283;52.504;13.358;2023-10-31T00:12:04;99155.97;;;14.57;75.39
41596;BME280;27283;52.504;13.358;2023-10-31T00:14:39;99147.19;;;14.62;75.83
41596;BME280;27283;52.504;13.358;2023-10-31T00:17:12;99146.09;;;14.63;75.94
41596;BME280;27283;52.504;13.358;2023-10-31T00:19:47;99178.66;;;14.56;75.97
41596;BME280;27283;52.504;13.358;2023-10-31T00:22:19;99172.28;;;14.50;76.67
41596;BME280;27283;52.504;13.358;2023-10-31T00:24:52;99176.00;;;14.68;76.39
41596;BME280;27283;52.504;13.358;2023-10-31T00:27:24;99181.19;;;14.69;75.78
41596;BME280;27283;52.504;13.358;2023-10-31T00:29:57;99167.50;;;14.64;76.39
41596;BME280;27283;52.504;13.358;2023-10-31T00:32:29;99162.78;;;14.60;76.86
41596;BME280;27283;52.504;13.358;2023-10-31T00:35:05;99148.34;;;14.66;76.85
41596;BME280;27283;52.504;13.358;2023-10-31T00:37:38;99135.84;;;14.53;76.82
41596;BME280;27283;52.504;13.358;2023-10-31T00:40:17;99140.69;;;14.63;76.91
41596;BME280;27283;52.504;13.358;2023-10-31T00:42:51;99136.19;;;14.57;77.45
41596;BME280;27283;52.504;13.358;2023-10-31T00:45:26;99127.13;;;14.51;77.68
41596;BME280;27283;52.504;13.358;2023-10-31T00:47:58;99130.03;;;14.38;78.88
41596;BME280;27283;52.504;13.358;2023-10-31T00:50:34;99133.38;;;14.51;78.29
41596;BME280;27283;52.504;13.358;2023-10-31T00:53:07;99129.84;;;14.51;78.03
41596;BME280;27283;52.504;13.358;2023-10-31T00:55:40;99140.50;;;14.46;79.14
41596;BME280;27283;52.504;13.358;2023-10-31T00:58:18;99139.72;;;14.57;78.20
41596;BME280;27283;52.504;13.358;2023-10-31T01:01:05;99144.91;;;14.59;77.70
41596;BME280;27283;52.504;13.358;2023-10-31T01:03:37;99140.94;;;14.61;77.76
41596;BME280;27283;52.504;13.358;2023-10-31T01:06:14;99150.25;;;14.65;77.85
41596;BME280;27283;52.504;13.358;2023-10-31T01:08:46;99131.53;;;14.64;78.26
41596;BME280;27283;52.504;13.358;2023-10-31T01:11:26;99124.72;;;14.31;80.52
41596;BME280;27283;52.504;13.358;2023-10-31T01:13:59;99108.38;;;14.26;82.08
41596;BME280;27283;52.504;13.358;2023-10-31T01:16:32;99106.75;;;14.36;81.82
41596;BME280;27283;52.504;13.358;2023-10-31T01:19:04;99106.88;;;14.42;81.30
41596;BME280;27283;52.504;13.358;2023-10-31T01:21:39;99099.47;;;14.49;80.82
41596;BME280;27283;52.504;13.358;2023-10-31T01:24:11;99090.19;;;14.33;81.63
41596;BME280;27283;52.504;13.358;2023-10-31T01:26:44;99079.56;;;14.20;82.48
41596;BME280;27283;52.504;13.358;2023-10-31T01:29:16;99074.63;;;14.16;83.65
41596;BME280;27283;52.504;13.358;2023-10-31T01:31:49;99060.03;;;14.17;84.07
41596;BME280;27283;52.504;13.358;2023-10-31T01:34:29;99051.06;;;14.05;85.15
41596;BME280;27283;52.504;13.358;2023-10-31T01:37:04;99060.25;;;14.16;84.75
41596;BME280;27283;52.504;13.358;2023-10-31T01:39:36;99063.09;;;14.21;84.90
41596;BME280;27283;52.504;13.358;2023-10-31T01:42:13;99085.22;;;14.30;84.54
41596;BME280;27283;52.504;13.358;2023-10-31T01:44:46;99086.28;;;14.29;84.08
41596;BME280;27283;52.504;13.358;2023-10-31T01:47:27;99070.91;;;13.99;85.86
41596;BME280;27283;52.504;13.358;2023-10-31T01:50:00;99070.59;;;14.07;86.69
41596;BME280;27283;52.504;13.358;2023-10-31T01:52:36;99079.38;;;14.03;86.94
41596;BME280;27283;52.504;13.358;2023-10-31T01:55:12;99068.34;;;14.16;86.61
41596;BME280;27283;52.504;13.358;2023-10-31T01:57:51;99063.81;;;13.86;87.43
41596;BME280;27283;52.504;13.358;2023-10-31T02:00:55;99063.63;;;13.99;87.87
41596;BME280;27283;52.504;13.358;2023-10-31T02:03:28;99048.59;;;14.04;87.31
41596;BME280;27283;52.504;13.358;2023-10-31T02:06:03;99032.34;;;13.92;88.82
41596;BME280;27283;52.504;13.358;2023-10-31T02:08:38;99018.13;;;13.85;89.49
41596;BME280;27283;52.504;13.358;2023-10-31T02:11:11;99015.34;;;14.03;88.89
41596;BME280;27283;52.504;13.358;2023-10-31T02:13:44;99026.66;;;14.12;88.03
41596;BME280;27283;52.504;13.358;2023-10-31T02:16:16;99019.06;;;13.90;88.21
41596;BME280;27283;52.504;13.358;2023-10-31T02:18:48;99030.06;;;13.77;89.66
41596;BME280;27283;52.504;13.358;2023-10-31T02:21:33;99002.16;;;13.64;90.62
41596;BME280;27283;52.504;13.358;2023-10-31T02:24:18;99002.31;;;13.70;91.05
41596;BME280;27283;52.504;13.358;2023-10-31T02:26:55;99003.53;;;13.86;90.13
41596;BME280;27283;52.504;13.358;2023-10-31T02:29:28;98995.44;;;13.86;89.17
41596;BME280;27283;52.504;13.358;2023-10-31T02:32:00;98979.00;;;13.57;91.23
41596;BME280;27283;52.504;13.358;2023-10-31T02:34:33;98982.72;;;13.74;91.10
41596;BME280;27283;52.504;13.358;2023-10-31T02:37:06;98994.38;;;13.87;90.14
41596;BME280;27283;52.504;13.358;2023-10-31T02:39:41;99002.50;;;13.87;89.61
41596;BME280;27283;52.504;13.358;2023-10-31T02:42:13;99011.41;;;13.57;91.15
41596;BME280;27283;52.504;13.358;2023-10-31T02:44:53;99000.03;;;13.55;92.40
41596;BME280;27283;52.504;13.358;2023-10-31T02:47:25;98998.16;;;13.55;92.26
41596;BME280;27283;52.504;13.358;2023-10-31T02:49:57;99000.78;;;13.74;91.92
41596;BME280;27283;52.504;13.358;2023-10-31T02:52:37;98998.38;;;13.54;92.16
41596;BME280;27283;52.504;13.358;2023-10-31T02:55:16;98992.97;;;13.54;93.05
41596;BME280;27283;52.504;13.358;2023-10-31T02:57:48;98993.38;;;13.39;93.60
41596;BME280;27283;52.504;13.358;2023-10-31T03:00:20;98989.03;;;13.38;94.09
41596;BME280;27283;52.504;13.358;2023-10-31T03:02:53;98977.84;;;13.53;94.24
41596;BME280;27283;52.504;13.358;2023-10-31T03:05:26;98975.34;;;13.33;94.08
41596;BME280;27283;52.504;13.358;2023-10-31T03:07:58;98975.91;;;13.41;94.25
41596;BME280;27283;52.504;13.358;2023-10-31T03:10:34;98969.75;;;13.53;93.75
41596;BME280;27283;52.504;13.358;2023-10-31T03:13:06;98967.47;;;13.31;94.89
41596;BME280;27283;52.504;13.358;2023-10-31T03:15:38;98963.81;;;13.25;95.32
41596;BME280;27283;52.504;13.358;2023-10-31T03:18:11;98961.22;;;13.19;95.85
41596;BME280;27283;52.504;13.358;2023-10-31T03:20:44;98970.16;;;13.38;95.34
41596;BME280;27283;52.504;13.358;2023-10-31T03:23:17;98965.56;;;13.38;94.87
41596;BME280;27283;52.504;13.358;2023-10-31T03:25:53;98966.25;;;13.34;94.99
41596;BME280;27283;52.504;13.358;2023-10-31T03:28:25;98965.50;;;13.57;94.46
41596;BME280;27283;52.504;13.358;2023-10-31T03:31:01;98973.88;;;13.37;95.05
41596;BME280;27283;52.504;13.358;2023-10-31T03:33:33;98973.19;;;13.41;94.64
41596;BME280;27283;52.504;13.358;2023-10-31T03:36:08;98977.84;;;13.34;95.51
41596;BME280;27283;52.504;13.358;2023-10-31T03:38:41;98978.06;;;13.33;95.65
41596;BME280;27283;52.504;13.358;2023-10-31T03:41:16;98987.97;;;13.39;95.10
41596;BME280;27283;52.504;13.358;2023-10-31T03:43:48;98982.47;;;13.27;96.48
41596;BME280;27283;52.504;13.358;2023-10-31T03:46:21;98983.88;;;13.36;96.17
41596;BME280;27283;52.504;13.358;2023-10-31T03:48:53;98983.03;;;13.36;95.89
41596;BME280;27283;52.504;13.358;2023-10-31T03:51:26;98976.50;;;13.25;96.74
41596;BME280;27283;52.504;13.358;2023-10-31T03:53:59;98986.94;;;13.40;96.20
41596;BME280;27283;52.504;13.358;2023-10-31T03:56:41;98979.41;;;13.42;95.29
41596;BME280;27283;52.504;13.358;2023-10-31T03:59:17;98988.25;;;13.30;96.17
41596;BME280;27283;52.504;13.358;2023-10-31T04:01:58;98987.63;;;13.17;96.91
41596;BME280;27283;52.504;13.358;2023-10-31T04:04:32;98988.31;;;13.24;96.85
41596;BME280;27283;52.504;13.358;2023-10-31T04:07:05;98991.56;;;13.14;97.20
41596;BME280;27283;52.504;13.358;2023-10-31T04:09:37;98989.63;;;13.21;97.06
41596;BME280;27283;52.504;13.358;2023-10-31T04:12:12;98989.53;;;13.28;96.70
41596;BME280;27283;52.504;13.358;2023-10-31T04:14:44;98985.38;;;13.14;97.67
41596;BME280;27283;52.504;13.358;2023-10-31T04:17:23;98987.00;;;13.15;97.51
41596;BME280;27283;52.504;13.358;2023-10-31T04:20:03;98977.19;;;13.02;98.00
41596;BME280;27283;52.504;13.358;2023-10-31T04:22:36;98981.38;;;12.98;98.46
41596;BME280;27283;52.504;13.358;2023-10-31T04:25:09;98982.66;;;12.76;99.51
41596;BME280;27283;52.504;13.358;2023-10-31T04:27:44;98980.03;;;12.88;99.24
41596;BME280;27283;52.504;13.358;2023-10-31T04:30:19;98977.41;;;13.00;99.14
41596;BME280;27283;52.504;13.358;2023-10-31T04:33:08;98970.59;;;12.79;100.00
41596;BME280;27283;52.504;13.358;2023-10-31T04:35:55;98969.38;;;12.93;99.45
41596;BME280;27283;52.504;13.358;2023-10-31T04:38:31;98970.94;;;12.46;100.00
41596;BME280;27283;52.504;13.358;2023-10-31T04:41:14;98974.25;;;12.66;100.00
41596;BME280;27283;52.504;13.358;2023-10-31T04:43:54;98975.09;;;13.04;100.00
41596;BME280;27283;52.504;13.358;2023-10-31T04:46:26;98967.81;;;12.67;100.00
41596;BME280;27283;52.504;13.358;2023-10-31T04:48:59;98959.59;;;12.62;100.00
41596;BME280;27283;52.504;13.358;2023-10-31T04:51:35;98960.47;;;12.74;100.00
41596;BME280;27283;52.504;13.358;2023-10-31T04:54:08;98966.38;;;12.65;100.00
41596;BME280;27283;52.504;13.358;2023-10-31T04:56:40;98971.09;;;12.26;100.00
41596;BME280;27283;52.504;13.358;2023-10-31T04:59:19;98962.13;;;12.32;100.00
41596;BME280;27283;52.504;13.358;2023-10-31T05:01:51;98962.22;;;12.44;100.00
41596;BME280;27283;52.504;13.358;2023-10-31T05:04:24;98965.66;;;12.76;100.00
41596;BME280;27283;52.504;13.358;2023-10-31T05:06:59;98961.28;;;12.93;100.00
41596;BME280;27283;52.504;13.358;2023-10-31T05:09:35;98961.16;;;12.88;100.00
41596;BME280;27283;52.504;13.358;2023-10-31T05:12:11;98962.94;;;13.13;100.00
41596;BME280;27283;52.504;13.358;2023-10-31T05:14:47;98964.53;;;12.84;100.00
41596;BME280;27283;52.504;13.358;2023-10-31T05:17:19;98970.34;;;13.18;100.00
41596;BME280;27283;52.504;13.358;2023-10-31T05:19:52;98971.91;;;13.25;100.00
41596;BME280;27283;52.504;13.358;2023-10-31T05:22:24;98967.59;;;13.24;100.00
41596;BME280;27283;52.504;13.358;2023-10-31T05:24:58;98963.34;;;13.28;100.00
41596;BME280;27283;52.504;13.358;2023-10-31T05:27:30;98962.75;;;13.45;100.00
41596;BME280;27283;52.504;13.358;2023-10-31T05:30:07;98962.34;;;13.60;100.00
41596;BME280;27283;52.504;13.358;2023-10-31T05:32:40;98958.38;;;13.62;100.00
41596;BME280;27283;52.504;13.358;2023-10-31T05:35:14;98964.13;;;13.54;99.68
41596;BME280;27283;52.504;13.358;2023-10-31T05:37:54;98964.97;;;13.67;99.39
41596;BME280;27283;52.504;13.358;2023-10-31T05:40:29;98952.28;;;13.37;100.00
41596;BME280;27283;52.504;13.358;2023-10-31T05:43:04;98963.59;;;13.45;100.00
41596;BME280;27283;52.504;13.358;2023-10-31T05:45:44;98965.91;;;13.60;100.00
41596;BME280;27283;52.504;13.358;2023-10-31T05:48:21;98966.06;;;13.47;100.00
41596;BME280;27283;52.504;13.358;2023-10-31T05:50:53;98961.25;;;13.49;100.00
41596;BME280;27283;52.504;13.358;2023-10-31T05:53:26;98968.19;;;13.75;100.00
41596;BME280;27283;52.504;13.358;2023-10-31T05:55:58;98973.44;;;13.70;100.00
41596;BME280;27283;52.504;13.358;2023-10-31T05:58:31;98980.09;;;13.68;100.00
41596;BME280;27283;52.504;13.358;2023-10-31T06:01:07;98979.88;;;13.69;100.00
41596;BME280;27283;52.504;13.358;2023-10-31T06:03:41;98977.97;;;13.58;100.00
41596;BME280;27283;52.504;13.358;2023-10-31T06:06:15;98978.16;;;13.26;100.00
41596;BME280;27283;52.504;13.358;2023-10-31T06:08:47;98981.25;;;13.60;100.00
41596;BME280;27283;52.504;13.358;2023-10-31T06:11:19;98981.75;;;13.69;100.00
41596;BME280;27283;52.504;13.358;2023-10-31T06:13:51;98979.84;;;13.57;100.00
41596;BME280;27283;52.504;13.358;2023-10-31T06:16:32;98978.44;;;13.55;100.00
41596;BME280;27283;52.504;13.358;2023-10-31T06:19:07;98984.38;;;13.75;100.00
41596;BME280;27283;52.504;13.358;2023-10-31T06:21:39;98990.41;;;13.89;100.00
41596;BME280;27283;52.504;13.358;2023-10-31T06:24:11;98986.94;;;13.70;100.00
41596;BME280;27283;52.504;13.358;2023-10-31T06:26:43;98990.50;;;12.78;100.00
41596;BME280;27283;52.504;13.358;2023-10-31T06:29:15;98998.56;;;12.41;100.00
41596;BME280;27283;52.504;13.358;2023-10-31T06:32:12;98992.91;;;12.68;100.00
41596;BME280;27283;52.504;13.358;2023-10-31T06:34:44;98998.59;;;13.52;100.00
41596;BME280;27283;52.504;13.358;2023-10-31T06:37:17;98998.44;;;13.65;100.00
41596;BME280;27283;52.504;13.358;2023-10-31T06:39:49;99004.84;;;13.83;100.00
41596;BME280;27283;52.504;13.358;2023-10-31T06:42:21;99003.50;;;13.74;100.00
41596;BME280;27283;52.504;13.358;2023-10-31T06:44:53;99019.28;;;13.89;100.00
41596;BME280;27283;52.504;13.358;2023-10-31T06:47:28;99021.97;;;13.77;100.00
41596;BME280;27283;52.504;13.358;2023-10-31T06:50:01;99010.25;;;13.95;100.00
41596;BME280;27283;52.504;13.358;2023-10-31T06:52:38;99023.94;;;14.12;100.00
41596;BME280;27283;52.504;13.358;2023-10-31T06:55:13;99032.09;;;14.24;100.00
41596;BME280;27283;52.504;13.358;2023-10-31T06:57:46;99026.63;;;13.70;100.00
41596;BME280;27283;52.504;13.358;2023-10-31T07:00:18;99031.44;;;13.98;100.00
41596;BME280;27283;52.504;13.358;2023-10-31T07:02:53;99033.22;;;14.04;100.00
41596;BME280;27283;52.504;13.358;2023-10-31T07:05:31;99034.84;;;14.05;100.00
41596;BME280;27283;52.504;13.358;2023-10-31T07:08:07;99040.44;;;14.22;100.00
41596;BME280;27283;52.504;13.358;2023-10-31T07:10:39;99040.84;;;14.49;99.61
41596;BME280;27283;52.504;13.358;2023-10-31T07:13:12;99039.91;;;14.56;98.71
41596;BME280;27283;52.504;13.358;2023-10-31T07:15:45;99050.16;;;14.23;100.00
41596;BME280;27283;52.504;13.358;2023-10-31T07:18:28;99072.69;;;14.05;100.00
41596;BME280;27283;52.504;13.358;2023-10-31T07:21:10;99068.13;;;13.75;100.00
41596;BME280;27283;52.504;13.358;2023-10-31T07:24:12;99071.59;;;12.83;100.00
41596;BME280;27283;52.504;13.358;2023-10-31T07:26:52;99077.78;;;13.09;100.00
41596;BME280;27283;52.504;13.358;2023-10-31T07:29:30;99082.66;;;13.19;99.34
41596;BME280;27283;52.504;13.358;2023-10-31T07:32:22;99085.81;;;12.90;99.13
41596;BME280;27283;52.504;13.358;2023-10-31T07:34:59;99091.31;;;12.84;99.17
41596;BME280;27283;52.504;13.358;2023-10-31T07:37:56;99098.09;;;13.11;98.44
41596;BME280;27283;52.504;13.358;2023-10-31T07:40:29;99091.69;;;13.50;97.38
41596;BME280;27283;52.504;13.358;2023-10-31T07:43:01;99100.63;;;13.50;95.36
41596;BME280;27283;52.504;13.358;2023-10-31T07:45:33;99105.63;;;13.83;93.91
41596;BME280;27283;52.504;13.358;2023-10-31T07:48:05;99111.56;;;13.55;94.09
41596;BME280;27283;52.504;13.358;2023-10-31T07:50:45;99123.28;;;13.24;93.54
41596;BME280;27283;52.504;13.358;2023-10-31T07:53:17;99121.66;;;13.23;92.84
41596;BME280;27283;52.504;13.358;2023-10-31T07:56:02;99118.47;;;13.70;92.76
41596;BME280;27283;52.504;13.358;2023-10-31T07:58:55;99132.78;;;12.83;92.11
41596;BME280;27283;52.504;13.358;2023-10-31T08:01:33;99127.25;;;12.77;92.11
41596;BME280;27283;52.504;13.358;2023-10-31T08:04:06;99125.25;;;12.91;91.20
41596;BME280;27283;52.504;13.358;2023-10-31T08:06:42;99125.75;;;12.56;92.21
41596;BME280;27283;52.504;13.358;2023-10-31T08:09:14;99121.31;;;13.12;90.85
41596;BME280;27283;52.504;13.358;2023-10-31T08:11:50;99139.19;;;12.88;90.44
41596;BME280;27283;52.504;13.358;2023-10-31T08:14:29;99141.22;;;12.68;90.87
41596;BME280;27283;52.504;13.358;2023-10-31T08:17:13;99144.00;;;13.30;87.56
41596;BME280;27283;52.504;13.358;2023-10-31T08:20:07;99146.91;;;12.85;88.93
41596;BME280;27283;52.504;13.358;2023-10-31T08:22:52;99158.34;;;13.05;85.17
41596;BME280;27283;52.504;13.358;2023-10-31T08:25:25;99159.19;;;13.06;86.37
41596;BME280;27283;52.504;13.358;2023-10-31T08:27:59;99160.16;;;12.61;86.41
41596;BME280;27283;52.504;13.358;2023-10-31T08:30:33;99166.41;;;13.30;84.13
41596;BME280;27283;52.504;13.358;2023-10-31T08:34:30;99173.28;;;13.52;84.20
41596;BME280;27283;52.504;13.358;2023-10-31T08:36:40;99178.69;;;13.89;81.11
41596;BME280;27283;52.504;13.358;2023-10-31T08:39:20;99182.81;;;13.10;80.54
41596;BME280;27283;52.504;13.358;2023-10-31T08:41:55;99180.91;;;13.80;79.99
41596;BME280;27283;52.504;13.358;2023-10-31T08:44:29;99185.59;;;13.66;80.55
41596;BME280;27283;52.504;13.358;2023-10-31T08:47:08;99184.63;;;13.97;77.93
41596;BME280;27283;52.504;13.358;2023-10-31T08:49:44;99187.03;;;13.87;78.40
41596;BME280;27283;52.504;13.358;2023-10-31T08:55:27;99196.56;;;13.27;80.31
41596;BME280;27283;52.504;13.358;2023-10-31T08:58:20;99190.41;;;13.45;79.19
41596;BME280;27283;52.504;13.358;2023-10-31T09:01:10;99206.00;;;13.99;78.57
41596;BME280;27283;52.504;13.358;2023-10-31T09:04:25;99208.44;;;12.94;77.38
41596;BME280;27283;52.504;13.358;2023-10-31T09:07:00;99202.66;;;13.16;78.77
41596;BME280;27283;52.504;13.358;2023-10-31T09:09:48;99194.22;;;12.81;78.35
41596;BME280;27283;52.504;13.358;2023-10-31T09:12:29;99210.09;;;13.46;78.66
41596;BME280;27283;52.504;13.358;2023-10-31T09:15:15;99209.25;;;12.70;76.58
41596;BME280;27283;52.504;13.358;2023-10-31T09:17:50;99217.44;;;13.14;75.89
41596;BME280;27283;52.504;13.358;2023-10-31T09:20:34;99221.16;;;14.18;72.52
41596;BME280;27283;52.504;13.358;2023-10-31T09:23:33;99231.84;;;14.62;70.78
41596;BME280;27283;52.504;13.358;2023-10-31T09:26:41;99219.31;;;13.82;71.96
41596;BME280;27283;52.504;13.358;2023-10-31T09:29:31;99234.56;;;14.44;71.61
41596;BME280;27283;52.504;13.358;2023-10-31T09:32:09;99224.56;;;13.95;70.71
41596;BME280;27283;52.504;13.358;2023-10-31T09:34:41;99234.38;;;13.53;73.73
41596;BME280;27283;52.504;13.358;2023-10-31T09:37:33;99235.78;;;13.74;72.43
41596;BME280;27283;52.504;13.358;2023-10-31T09:40:07;99244.22;;;13.84;74.20
41596;BME280;27283;52.504;13.358;2023-10-31T09:43:24;99239.91;;;13.58;72.90
41596;BME280;27283;52.504;13.358;2023-10-31T09:46:34;99259.09;;;12.54;76.07
41596;BME280;27283;52.504;13.358;2023-10-31T09:49:28;99246.50;;;12.48;77.94
41596;BME280;27283;52.504;13.358;2023-10-31T09:52:31;99247.13;;;13.14;78.73
41596;BME280;27283;52.504;13.358;2023-10-31T09:55:20;99259.66;;;12.69;75.61
41596;BME280;27283;52.504;13.358;2023-10-31T09:58:05;99254.03;;;12.71;78.32
41596;BME280;27283;52.504;13.358;2023-10-31T10:00:53;99260.50;;;13.27;77.71
41596;BME280;27283;52.504;13.358;2023-10-31T10:04:00;99266.63;;;13.66;78.41
41596;BME280;27283;52.504;13.358;2023-10-31T10:07:02;99271.94;;;13.54;76.11
41596;BME280;27283;52.504;13.358;2023-10-31T10:09:40;99277.53;;;13.27;74.41
41596;BME280;27283;52.504;13.358;2023-10-31T10:12:35;99274.56;;;13.04;75.54
41596;BME280;27283;52.504;13.358;2023-10-31T10:15:28;99277.06;;;13.37;78.15
41596;BME280;27283;52.504;13.358;2023-10-31T10:18:41;99293.38;;;13.49;77.87
41596;BME280;27283;52.504;13.358;2023-10-31T10:21:22;99276.03;;;13.82;75.73
41596;BME280;27283;52.504;13.358;2023-10-31T10:24:29;99285.94;;;13.12;75.26
41596;BME280;27283;52.504;13.358;2023-10-31T10:27:40;99297.63;;;13.06;75.40
41596;BME280;27283;52.504;13.358;2023-10-31T10:30:21;99292.38;;;13.69;74.70
41596;BME280;27283;52.504;13.358;2023-10-31T10:33:06;99281.66;;;13.30;74.38
41596;BME280;27283;52.504;13.358;2023-10-31T10:35:39;99292.56;;;13.49;73.80
41596;BME280;27283;52.504;13.358;2023-10-31T10:38:15;99287.88;;;13.30;74.73
41596;BME280;27283;52.504;13.358;2023-10-31T10:40:48;99295.84;;;13.51;74.15
41596;BME280;27283;52.504;13.358;2023-10-31T10:43:27;99293.03;;;13.39;75.07
41596;BME280;27283;52.504;13.358;2023-10-31T10:46:05;99294.16;;;13.56;74.40
41596;BME280;27283;52.504;13.358;2023-10-31T10:48:56;99282.31;;;13.25;74.23
41596;BME280;27283;52.504;13.358;2023-10-31T10:51:58;99285.34;;;13.42;73.70
41596;BME280;27283;52.504;13.358;2023-10-31T10:54:58;99276.94;;;13.94;72.92
41596;BME280;27283;52.504;13.358;2023-10-31T10:57:46;99271.41;;;13.89;72.91
41596;BME280;27283;52.504;13.358;2023-10-31T11:00:40;99272.06;;;14.03;71.54
41596;BME280;27283;52.504;13.358;2023-10-31T11:03:32;99272.00;;;14.28;72.61
41596;BME280;27283;52.504;13.358;2023-10-31T11:07:08;99271.09;;;14.16;70.35
41596;BME280;27283;52.504;13.358;2023-10-31T11:10:28;99267.22;;;14.12;70.57
41596;BME280;27283;52.504;13.358;2023-10-31T11:13:22;99272.56;;;14.49;71.29
41596;BME280;27283;52.504;13.358;2023-10-31T11:16:21;99277.78;;;14.32;69.79
41596;BME280;27283;52.504;13.358;2023-10-31T11:19:16;99264.78;;;14.04;69.22
41596;BME280;27283;52.504;13.358;2023-10-31T11:22:05;99290.31;;;14.45;68.45
41596;BME280;27283;52.504;13.358;2023-10-31T11:24:48;99293.16;;;13.51;70.92
41596;BME280;27283;52.504;13.358;2023-10-31T11:27:42;99290.72;;;13.68;73.40
41596;BME280;27283;52.504;13.358;2023-10-31T11:30:56;99301.03;;;13.77;72.22
41596;BME280;27283;52.504;13.358;2023-10-31T11:33:53;99293.16;;;13.94;70.69
41596;BME280;27283;52.504;13.358;2023-10-31T11:36:35;99283.91;;;13.65;73.64
41596;BME280;27283;52.504;13.358;2023-10-31T11:39:11;99310.59;;;13.48;73.17
41596;BME280;27283;52.504;13.358;2023-10-31T11:41:48;99291.63;;;13.36;72.13
41596;BME280;27283;52.504;13.358;2023-10-31T11:44:57;99303.97;;;13.19;73.86
41596;BME280;27283;52.504;13.358;2023-10-31T11:47:46;99300.59;;;13.23;73.29
41596;BME280;27283;52.504;13.358;2023-10-31T11:50:22;99306.50;;;13.45;74.35
41596;BME280;27283;52.504;13.358;2023-10-31T11:53:29;99312.16;;;13.37;73.77
41596;BME280;27283;52.504;13.358;2023-10-31T11:56:21;99302.53;;;13.92;72.76
41596;BME280;27283;52.504;13.358;2023-10-31T11:59:10;99332.00;;;14.18;72.42
41596;BME280;27283;52.504;13.358;2023-10-31T12:02:21;99338.25;;;13.75;70.76
41596;BME280;27283;52.504;13.358;2023-10-31T12:05:11;99341.31;;;13.22;71.80
41596;BME280;27283;52.504;13.358;2023-10-31T12:07:49;99337.34;;;13.81;71.84
41596;BME280;27283;52.504;13.358;2023-10-31T12:10:49;99334.97;;;13.41;73.34
41596;BME280;27283;52.504;13.358;2023-10-31T12:13:30;99333.41;;;13.59;70.79
41596;BME280;27283;52.504;13.358;2023-10-31T12:16:08;99337.34;;;12.86;72.82
41596;BME280;27283;52.504;13.358;2023-10-31T12:18:58;99350.16;;;13.36;71.86
41596;BME280;27283;52.504;13.358;2023-10-31T12:22:18;99358.81;;;13.12;72.41
41596;BME280;27283;52.504;13.358;2023-10-31T12:25:11;99366.00;;;12.87;72.22
41596;BME280;27283;52.504;13.358;2023-10-31T12:27:59;99355.09;;;13.07;70.72
41596;BME280;27283;52.504;13.358;2023-10-31T12:30:44;99370.16;;;12.83;71.12
41596;BME280;27283;52.504;13.358;2023-10-31T12:33:32;99369.44;;;13.07;70.89
41596;BME280;27283;52.504;13.358;2023-10-31T12:36:10;99366.19;;;13.24;70.53
41596;BME280;27283;52.504;13.358;2023-10-31T12:38:50;99367.19;;;13.68;69.26
41596;BME280;27283;52.504;13.358;2023-10-31T12:41:30;99362.22;;;13.33;69.46
41596;BME280;27283;52.504;13.358;2023-10-31T12:44:15;99368.75;;;13.51;68.95
41596;BME280;27283;52.504;13.358;2023-10-31T12:47:10;99377.97;;;13.68;69.25
41596;BME280;27283;52.504;13.358;2023-10-31T12:50:09;99383.00;;;12.94;69.21
41596;BME280;27283;52.504;13.358;2023-10-31T12:52:52;99374.50;;;13.22;70.28
41596;BME280;27283;52.504;13.358;2023-10-31T12:55:44;99388.59;;;13.38;69.61
41596;BME280;27283;52.504;13.358;2023-10-31T12:58:40;99390.88;;;12.89;70.21
41596;BME280;27283;52.504;13.358;2023-10-31T13:01:43;99384.75;;;13.52;69.26
41596;BME280;27283;52.504;13.358;2023-10-31T13:04:27;99395.72;;;13.19;70.28
41596;BME280;27283;52.504;13.358;2023-10-31T13:07:00;99395.28;;;13.22;69.28
41596;BME280;27283;52.504;13.358;2023-10-31T13:09:40;99398.25;;;13.52;67.57
41596;BME280;27283;52.504;13.358;2023-10-31T13:12:13;99404.69;;;13.51;69.14
41596;BME280;27283;52.504;13.358;2023-10-31T13:15:20;99421.22;;;13.36;69.92
41596;BME280;27283;52.504;13.358;2023-10-31T13:17:55;99426.38;;;13.31;68.65
41596;BME280;27283;52.504;13.358;2023-10-31T13:20:32;99432.63;;;13.25;69.71
41596;BME280;27283;52.504;13.358;2023-10-31T13:23:09;99436.63;;;13.16;70.26
41596;BME280;27283;52.504;13.358;2023-10-31T13:25:44;99454.88;;;13.20;70.47
41596;BME280;27283;52.504;13.358;2023-10-31T13:28:17;99450.66;;;13.31;69.38
41596;BME280;27283;52.504;13.358;2023-10-31T13:30:59;99450.84;;;13.43;71.67
41596;BME280;27283;52.504;13.358;2023-10-31T13:33:35;99450.06;;;13.29;70.11
41596;BME280;27283;52.504;13.358;2023-10-31T13:36:09;99465.03;;;13.25;71.90
41596;BME280;27283;52.504;13.358;2023-10-31T13:38:42;99440.41;;;13.08;73.93
41596;BME280;27283;52.504;13.358;2023-10-31T13:41:34;99452.72;;;12.97;73.54
41596;BME280;27283;52.504;13.358;2023-10-31T13:44:12;99457.47;;;13.02;73.71
41596;BME280;27283;52.504;13.358;2023-10-31T13:46:46;99458.78;;;12.79;75.25
41596;BME280;27283;52.504;13.358;2023-10-31T13:49:22;99470.88;;;12.43;78.55
41596;BME280;27283;52.504;13.358;2023-10-31T13:52:04;99473.56;;;12.50;80.34
41596;BME280;27283;52.504;13.358;2023-10-31T13:54:51;99481.47;;;12.04;81.00
41596;BME280;27283;52.504;13.358;2023-10-31T13:57:32;99489.28;;;11.86;83.31
41596;BME280;27283;52.504;13.358;2023-10-31T14:00:28;99490.59;;;12.03;83.31